Time;durP1;ratioP1;P1;durP2;ratioP2;P2;SDS_P1;SDS_P2;PMS_P1;PMS_P2;Temp;Humidity;BMP_temperature;BMP_pressure;BME280_temperature;BME280_humidity;BME280_pressure;Samples;Min_cycle;Max_cycle;Signal;HPM_P1;HPM_P2
2022/02/09 00:02:27;;;;;;;0.50;0.43;;;9.20;99.90;;;;;;5013022;28;20516;-78
2022/02/09 00:05:10;;;;;;;2.38;2.17;;;9.20;99.90;;;;;;5012631;28;20333;-78
2022/02/09 00:07:41;;;;;;;0.77;0.60;;;9.10;99.90;;;;;;5012930;28;20196;-78
2022/02/09 00:10:10;;;;;;;1.15;0.85;;;9.10;99.90;;;;;;5012756;28;20191;-78
2022/02/09 00:12:42;;;;;;;1.50;1.45;;;9.10;99.90;;;;;;5012926;28;20202;-78
2022/02/09 00:15:23;;;;;;;0.75;0.73;;;9.10;99.90;;;;;;5012974;28;20597;-77
2022/02/09 00:17:58;;;;;;;0.50;0.50;;;9.10;99.90;;;;;;5012343;28;20179;-79
2022/02/09 00:26:53;;;;;;;0.50;0.40;;;9.00;99.90;;;;;;5012329;28;20226;-78
2022/02/09 00:29:39;;;;;;;2.05;0.75;;;9.00;99.90;;;;;;5011803;28;20199;-78
2022/02/09 00:32:29;;;;;;;4.38;1.05;;;9.00;99.90;;;;;;5012579;28;20257;-78
2022/02/09 00:35:25;;;;;;;1.92;1.35;;;9.00;99.90;;;;;;5012502;28;20289;-79
2022/02/09 00:41:00;;;;;;;0.50;0.40;;;9.00;99.90;;;;;;5011583;28;20710;-78
2022/02/09 00:43:46;;;;;;;1.10;1.10;;;9.00;99.90;;;;;;5012428;28;20213;-79
2022/02/09 01:11:14;;;;;;;0.50;0.40;;;9.00;99.90;;;;;;5012439;28;20201;-76
2022/02/09 01:38:48;;;;;;;0.52;0.50;;;8.70;99.90;;;;;;5015046;28;20248;-77
2022/02/09 01:42:28;;;;;;;0.50;0.40;;;8.60;99.90;;;;;;5015015;28;20310;-77
2022/02/09 01:55:38;;;;;;;0.70;0.63;;;8.60;99.90;;;;;;5017314;28;20218;-79
2022/02/09 01:58:05;;;;;;;0.82;0.40;;;8.60;99.90;;;;;;5016109;28;20198;-77
2022/02/09 02:00:31;;;;;;;0.80;0.80;;;8.60;99.90;;;;;;5015610;28;20227;-77
2022/02/09 02:02:58;;;;;;;0.60;0.60;;;8.60;99.90;;;;;;5015976;28;20228;-78
2022/02/09 02:05:27;;;;;;;0.70;0.40;;;8.60;99.90;;;;;;5015791;28;20230;-78
2022/02/09 02:07:57;;;;;;;1.55;0.70;;;8.60;99.90;;;;;;5015962;28;20197;-78
2022/02/09 02:10:32;;;;;;;1.05;0.82;;;8.50;99.90;;;;;;5015604;28;20550;-78
2022/02/09 02:13:14;;;;;;;1.08;0.93;;;8.50;99.90;;;;;;5016104;28;20183;-78
2022/02/09 02:18:32;;;;;;;0.80;0.70;;;8.40;99.90;;;;;;5010076;28;20195;-77
2022/02/09 02:21:17;;;;;;;0.88;0.88;;;8.40;99.90;;;;;;5014535;28;20860;-77
2022/02/09 02:24:07;;;;;;;1.50;1.40;;;8.30;99.90;;;;;;5015067;28;20188;-77
2022/02/09 02:26:47;;;;;;;1.10;1.10;;;8.30;99.90;;;;;;5016838;28;20186;-77
2022/02/09 02:29:41;;;;;;;1.80;1.48;;;8.30;99.90;;;;;;5016698;28;20188;-79
2022/02/09 02:37:59;;;;;;;1.85;1.75;;;8.30;99.90;;;;;;5017077;28;20194;-79
2022/02/09 02:46:32;;;;;;;2.92;1.95;;;8.30;99.90;;;;;;5032507;28;20244;-79
2022/02/09 02:57:41;;;;;;;1.95;1.45;;;8.40;99.90;;;;;;4996635;28;20657;-79
2022/02/09 03:08:51;;;;;;;4.90;3.53;;;8.50;99.90;;;;;;5021399;28;20201;-79
2022/02/09 03:11:47;;;;;;;3.53;2.88;;;8.50;99.90;;;;;;5014741;28;20272;-74
2022/02/09 03:14:19;;;;;;;2.97;1.75;;;8.50;99.90;;;;;;5014342;28;20297;-78
2022/02/09 03:16:53;;;;;;;2.50;2.30;;;8.50;99.90;;;;;;5014421;28;20695;-78
2022/02/09 03:22:31;;;;;;;2.05;0.70;;;8.50;99.90;;;;;;5000838;28;20227;-78
2022/02/09 03:44:33;;;;;;;3.90;2.50;;;8.60;99.90;;;;;;5000338;28;20193;-77
2022/02/09 03:50:21;;;;;;;1.13;1.02;;;8.60;99.90;;;;;;5010526;28;20676;-76
2022/02/09 03:53:07;;;;;;;1.85;1.75;;;8.60;99.90;;;;;;5011935;28;20200;-77
2022/02/09 03:55:47;;;;;;;3.33;2.88;;;8.60;99.90;;;;;;5013063;28;20636;-77
2022/02/09 03:58:15;;;;;;;1.20;1.10;;;8.60;99.90;;;;;;5013034;28;20187;-73
2022/02/09 04:00:45;;;;;;;3.35;2.78;;;8.60;99.90;;;;;;5012084;28;20321;-78
2022/02/09 04:03:16;;;;;;;2.35;2.15;;;8.60;99.90;;;;;;5012976;28;20562;-77
2022/02/09 04:05:44;;;;;;;0.98;0.75;;;8.60;99.90;;;;;;5012136;28;20662;-77
2022/02/09 04:08:14;;;;;;;2.08;1.25;;;8.60;99.90;;;;;;5012987;28;20205;-77
2022/02/09 04:10:45;;;;;;;1.83;0.90;;;8.60;99.90;;;;;;5012725;28;20195;-78
2022/02/09 04:13:19;;;;;;;2.88;2.35;;;8.60;99.90;;;;;;5012624;28;20213;-77
2022/02/09 04:15:55;;;;;;;4.05;3.15;;;8.60;99.90;;;;;;5012422;28;20661;-78
2022/02/09 04:18:43;;;;;;;2.47;2.28;;;8.60;99.90;;;;;;5013093;28;20225;-77
2022/02/09 04:37:52;;;;;;;2.38;2.10;;;8.50;99.90;;;;;;5013434;28;20196;-78
2022/02/09 04:40:38;;;;;;;6.13;2.67;;;8.40;99.90;;;;;;5014328;28;20183;-78
2022/02/09 04:43:24;;;;;;;1.85;1.75;;;8.40;99.90;;;;;;5013723;28;20199;-77
2022/02/09 04:46:20;;;;;;;0.50;0.40;;;8.40;99.90;;;;;;5014238;28;20249;-79
2022/02/09 04:51:38;;;;;;;1.38;1.27;;;8.40;99.90;;;;;;5013045;28;20201;-79
2022/02/09 04:54:21;;;;;;;4.90;3.55;;;8.40;99.90;;;;;;5014030;28;20187;-78
2022/02/09 04:56:53;;;;;;;2.35;2.10;;;8.40;99.90;;;;;;5014413;28;20180;-79
2022/02/09 04:59:27;;;;;;;1.30;1.20;;;8.40;99.90;;;;;;5014665;28;20601;-79
2022/02/09 05:05:01;;;;;;;1.60;0.70;;;8.40;99.90;;;;;;5009133;28;20220;-79
2022/02/09 05:18:59;;;;;;;2.03;1.63;;;8.30;99.90;;;;;;5017882;28;20194;-78
2022/02/09 05:24:37;;;;;;;1.67;1.58;;;8.30;99.90;;;;;;4975324;28;20211;-78
2022/02/09 05:27:16;;;;;;;0.60;0.60;;;8.30;99.90;;;;;;4978879;28;20614;-79
2022/02/09 05:29:43;;;;;;;1.50;1.40;;;8.40;99.90;;;;;;4978147;28;20200;-79
2022/02/09 05:32:10;;;;;;;1.02;0.80;;;8.40;99.90;;;;;;4975507;28;20618;-79
2022/02/09 05:34:36;;;;;;;1.40;1.30;;;8.40;99.90;;;;;;4975069;28;20224;-78
2022/02/09 05:37:04;;;;;;;0.50;0.40;;;8.40;99.90;;;;;;4974812;28;20196;-80
2022/02/09 05:39:32;;;;;;;2.78;1.27;;;8.50;99.90;;;;;;4974435;28;20567;-77
2022/02/09 05:41:59;;;;;;;0.60;0.40;;;8.50;99.90;;;;;;4974852;28;20219;-79
2022/02/09 05:44:26;;;;;;;0.85;0.85;;;8.50;99.90;;;;;;4975066;28;20206;-78
2022/02/09 05:47:25;;;;;;;0.77;0.77;;;8.50;99.90;;;;;;5021878;22;20732;-77
2022/02/09 05:49:48;;;;;;;1.52;1.02;;;8.50;99.90;;;;;;5072736;28;20217;-75
2022/02/09 05:52:21;;;;;;;1.67;1.58;;;8.50;99.90;;;;;;5074462;28;20238;-77
2022/02/09 05:57:44;;;;;;;1.30;1.20;;;8.60;99.90;;;;;;5071230;28;20647;-76
2022/02/09 06:00:12;;;;;;;1.52;1.52;;;8.60;99.90;;;;;;5073988;28;20201;-78
2022/02/09 06:02:39;;;;;;;0.60;0.40;;;8.60;99.90;;;;;;5074491;28;20587;-77
2022/02/09 06:05:06;;;;;;;2.35;1.08;;;8.60;99.90;;;;;;5074480;28;20613;-75
2022/02/09 06:07:33;;;;;;;1.25;0.60;;;8.60;99.90;;;;;;5073781;28;20587;-77
2022/02/09 06:10:01;;;;;;;0.50;0.50;;;8.60;99.90;;;;;;5073314;28;20662;-77
2022/02/09 06:12:34;;;;;;;0.50;0.50;;;8.60;99.90;;;;;;5074199;28;20540;-77
2022/02/09 06:15:21;;;;;;;0.63;0.63;;;8.70;99.90;;;;;;5074466;28;20180;-77
2022/02/09 06:20:42;;;;;;;1.23;1.13;;;8.70;99.90;;;;;;5016702;28;20201;-77
2022/02/09 06:23:08;;;;;;;0.50;0.50;;;8.70;99.90;;;;;;5073984;28;20692;-78
2022/02/09 06:25:37;;;;;;;1.13;0.90;;;8.70;99.90;;;;;;5073720;28;20197;-76
2022/02/09 06:28:04;;;;;;;2.70;1.20;;;8.70;99.90;;;;;;5073802;28;20283;-78
2022/02/09 06:30:31;;;;;;;0.60;0.60;;;8.70;99.90;;;;;;5073885;28;20209;-78
2022/02/09 06:32:57;;;;;;;1.35;1.05;;;8.80;99.90;;;;;;5073748;28;20200;-79
2022/02/09 06:35:24;;;;;;;2.75;2.35;;;8.80;99.90;;;;;;5073412;28;20197;-78
2022/02/09 06:37:51;;;;;;;1.50;1.40;;;8.80;99.90;;;;;;5073302;28;20224;-78
2022/02/09 06:40:20;;;;;;;0.98;0.88;;;8.80;99.90;;;;;;5073491;28;20192;-78
2022/02/09 06:42:48;;;;;;;3.78;2.85;;;8.70;99.90;;;;;;5073626;28;20742;-78
2022/02/09 06:45:19;;;;;;;0.68;0.68;;;8.70;99.90;;;;;;5073107;28;20288;-78
2022/02/09 06:47:46;;;;;;;2.75;1.52;;;8.70;99.90;;;;;;5072891;28;20646;-79
2022/02/09 06:50:20;;;;;;;6.95;3.20;;;8.80;99.90;;;;;;5072740;28;20197;-79
2022/02/09 06:52:57;;;;;;;1.40;1.25;;;8.80;99.90;;;;;;5073065;28;20197;-78
2022/02/09 06:55:24;;;;;;;3.20;2.63;;;8.80;99.90;;;;;;5072775;28;20196;-77
2022/02/09 06:58:02;;;;;;;2.88;2.70;;;8.70;99.90;;;;;;5073205;28;20274;-79
2022/02/09 07:00:30;;;;;;;14.23;2.60;;;8.70;99.90;;;;;;5073206;28;20185;-79
2022/02/09 07:02:57;;;;;;;1.60;0.80;;;8.70;99.90;;;;;;5073430;28;20722;-79
2022/02/09 07:05:24;;;;;;;1.70;1.60;;;8.80;99.90;;;;;;5072934;28;20208;-76
2022/02/09 07:07:50;;;;;;;2.10;1.25;;;8.70;99.90;;;;;;5072241;28;20247;-77
2022/02/09 07:10:17;;;;;;;0.98;0.85;;;8.70;99.90;;;;;;5072657;28;20608;-77
2022/02/09 07:12:44;;;;;;;3.17;1.50;;;8.70;99.90;;;;;;5072815;28;20189;-77
2022/02/09 07:15:16;;;;;;;1.50;1.13;;;8.80;99.90;;;;;;5072589;28;20690;-77
2022/02/09 07:17:44;;;;;;;0.82;0.82;;;8.80;99.90;;;;;;5072520;28;20267;-77
2022/02/09 07:20:17;;;;;;;5.32;3.03;;;8.80;99.90;;;;;;5072274;28;20198;-78
2022/02/09 07:22:44;;;;;;;0.85;0.85;;;8.80;99.90;;;;;;5072749;28;20682;-77
2022/02/09 07:25:14;;;;;;;20.70;2.85;;;8.80;99.90;;;;;;5072703;28;20201;-77
2022/02/09 07:27:49;;;;;;;1.02;0.70;;;8.80;99.90;;;;;;5072964;28;20216;-77
2022/02/09 07:30:19;;;;;;;3.78;2.10;;;8.80;99.90;;;;;;5072100;28;20280;-76
2022/02/09 07:32:46;;;;;;;1.88;1.02;;;8.80;99.90;;;;;;5072076;28;20662;-78
2022/02/09 07:35:13;;;;;;;2.25;2.15;;;8.80;99.90;;;;;;5072030;28;20274;-78
2022/02/09 07:37:40;;;;;;;2.15;2.05;;;8.80;99.90;;;;;;5072558;28;20224;-78
2022/02/09 07:40:10;;;;;;;2.35;0.70;;;8.80;99.90;;;;;;5071516;28;20185;-77
2022/02/09 07:42:42;;;;;;;2.90;1.73;;;8.80;99.90;;;;;;5071808;28;20224;-78
2022/02/09 07:45:28;;;;;;;1.50;1.20;;;8.90;99.90;;;;;;5072355;28;20184;-76
2022/02/09 07:48:14;;;;;;;4.75;1.08;;;8.80;99.90;;;;;;5072055;28;20220;-73
2022/02/09 07:50:44;;;;;;;3.80;3.50;;;8.80;99.90;;;;;;5071823;28;20276;-77
2022/02/09 07:53:13;;;;;;;1.63;1.52;;;8.80;99.90;;;;;;5071653;28;20189;-77
2022/02/09 07:55:41;;;;;;;3.05;2.13;;;8.80;99.90;;;;;;5072204;28;20608;-77
2022/02/09 07:58:08;;;;;;;5.80;3.90;;;8.90;99.90;;;;;;5071880;28;20214;-76
2022/02/09 08:00:34;;;;;;;2.85;2.38;;;8.90;99.90;;;;;;5071973;28;20190;-77
2022/02/09 08:03:04;;;;;;;3.40;3.10;;;8.90;99.90;;;;;;5071713;28;20224;-77
2022/02/09 08:05:31;;;;;;;3.20;3.10;;;9.00;99.90;;;;;;5071902;28;20205;-77
2022/02/09 08:07:58;;;;;;;2.05;1.95;;;9.00;99.90;;;;;;5071848;28;20224;-77
2022/02/09 08:10:28;;;;;;;2.45;2.25;;;9.00;99.90;;;;;;5071666;28;20200;-76
2022/02/09 08:24:10;;;;;;;2.95;2.65;;;9.00;99.90;;;;;;5071492;28;20217;-77
2022/02/09 08:26:50;;;;;;;2.15;2.03;;;9.00;99.90;;;;;;5072025;28;20220;-76
2022/02/09 08:29:21;;;;;;;2.20;1.52;;;9.00;99.90;;;;;;5070997;28;20524;-76
2022/02/09 08:32:35;;;;;;;0.73;0.73;;;9.00;99.90;;;;;;5071481;28;20200;-75
2022/02/09 08:34:47;;;;;;;3.58;3.28;;;8.90;99.90;;;;;;5071312;28;20197;-77
2022/02/09 08:37:14;;;;;;;3.25;1.95;;;8.90;99.90;;;;;;5071521;28;20633;-77
2022/02/09 08:39:41;;;;;;;0.50;0.40;;;8.90;99.90;;;;;;5069890;28;20715;-77
2022/02/09 08:42:08;;;;;;;0.98;0.98;;;9.00;99.90;;;;;;5071743;28;20690;-76
2022/02/09 08:44:34;;;;;;;4.35;3.50;;;9.00;99.90;;;;;;5071509;28;20193;-76
2022/02/09 08:47:01;;;;;;;3.67;1.90;;;9.00;99.90;;;;;;5070766;28;20225;-77
2022/02/09 08:49:29;;;;;;;2.10;2.00;;;9.00;99.90;;;;;;5071147;28;20548;-76
2022/02/09 08:51:58;;;;;;;2.35;1.00;;;9.00;99.90;;;;;;5070975;28;20197;-77
2022/02/09 08:54:25;;;;;;;4.75;4.35;;;9.00;99.90;;;;;;5070849;28;20715;-76
2022/02/09 08:56:53;;;;;;;2.45;2.35;;;9.00;99.90;;;;;;5071654;28;20246;-77
2022/02/09 08:59:24;;;;;;;2.65;2.45;;;9.00;99.90;;;;;;5070909;28;20563;-76
2022/02/09 09:01:56;;;;;;;1.08;0.93;;;9.10;99.90;;;;;;5070875;28;20228;-76
2022/02/09 09:04:27;;;;;;;1.00;0.88;;;9.10;99.90;;;;;;5071162;28;20678;-76
2022/02/09 09:06:56;;;;;;;7.93;3.75;;;9.10;99.90;;;;;;5071472;28;20217;-73
2022/02/09 09:09:41;;;;;;;0.80;0.50;;;9.10;99.90;;;;;;5070893;28;20694;-78
2022/02/09 09:59:38;;;;;;;1.75;1.55;;;10.40;99.90;;;;;;5073936;28;20204;-77
2022/02/09 10:33:02;;;;;;;1.70;1.30;;;10.70;99.90;;;;;;5071883;28;20459;-77
2022/02/09 10:35:33;;;;;;;1.90;1.07;;;10.50;99.90;;;;;;5073775;28;20420;-78
2022/02/09 10:38:02;;;;;;;1.10;0.98;;;10.50;99.90;;;;;;5073571;28;20452;-77
2022/02/09 10:40:37;;;;;;;1.57;1.47;;;10.50;99.90;;;;;;5073136;28;20190;-75
2022/02/09 10:43:05;;;;;;;3.40;2.28;;;10.50;99.90;;;;;;5073528;28;20537;-73
2022/02/09 10:45:36;;;;;;;1.87;1.70;;;10.60;99.90;;;;;;5073854;28;20247;-77
2022/02/09 10:48:06;;;;;;;0.90;0.90;;;10.80;99.90;;;;;;5073233;28;20993;-77
2022/02/09 10:50:35;;;;;;;3.30;1.30;;;10.80;99.90;;;;;;5073420;28;20452;-77
2022/02/09 10:53:04;;;;;;;0.88;0.88;;;10.80;99.90;;;;;;5072662;28;20192;-77
2022/02/09 10:55:34;;;;;;;10.70;1.23;;;10.70;99.90;;;;;;5073582;28;20247;-77
2022/02/09 10:58:02;;;;;;;1.20;1.10;;;10.70;99.90;;;;;;5073366;28;20518;-77
2022/02/09 11:00:29;;;;;;;1.00;0.80;;;10.80;99.90;;;;;;5073087;28;20520;-76
2022/02/09 11:02:56;;;;;;;1.03;0.97;;;10.60;99.90;;;;;;5072648;28;20888;-77
2022/02/09 11:05:25;;;;;;;9.53;0.80;;;10.60;99.90;;;;;;5073156;28;20501;-78
2022/02/09 11:07:52;;;;;;;0.93;0.80;;;10.80;99.90;;;;;;5072800;28;20472;-77
2022/02/09 11:10:19;;;;;;;2.00;1.40;;;10.90;99.90;;;;;;5072676;28;20660;-77
2022/02/09 11:12:46;;;;;;;2.67;2.47;;;11.00;99.90;;;;;;5073183;28;20244;-76
2022/02/09 11:15:18;;;;;;;2.13;1.93;;;11.00;99.90;;;;;;5072600;28;20432;-79
2022/02/09 11:17:47;;;;;;;3.50;0.60;;;11.00;99.90;;;;;;5072908;28;20977;-77
2022/02/09 11:20:15;;;;;;;1.10;1.10;;;10.90;99.90;;;;;;5072021;28;20874;-78
2022/02/09 11:22:46;;;;;;;1.03;0.93;;;10.70;99.90;;;;;;5072311;28;21008;-77
2022/02/09 11:25:17;;;;;;;1.97;1.80;;;10.70;99.90;;;;;;5072828;28;20481;-77
2022/02/09 11:27:54;;;;;;;1.27;1.17;;;10.70;99.90;;;;;;5072759;28;20514;-77
2022/02/09 11:30:31;;;;;;;0.60;0.60;;;10.40;99.90;;;;;;5072463;28;20459;-77
2022/02/09 11:33:09;;;;;;;0.88;0.88;;;10.30;99.90;;;;;;5072291;28;20227;-77
2022/02/09 11:35:44;;;;;;;1.37;0.77;;;10.20;99.90;;;;;;5072461;28;20228;-77
2022/02/09 11:38:26;;;;;;;1.27;0.95;;;10.20;99.90;;;;;;5071989;28;20456;-78
2022/02/09 11:41:09;;;;;;;0.52;0.43;;;10.20;99.90;;;;;;5072006;28;20284;-77
2022/02/09 11:43:59;;;;;;;1.15;1.08;;;10.00;99.90;;;;;;5072461;28;20267;-77
2022/02/09 11:46:42;;;;;;;6.95;1.52;;;9.90;99.90;;;;;;5072117;28;20260;-77
2022/02/09 11:55:53;;;;;;;0.50;0.40;;;10.10;99.90;;;;;;5072150;28;20235;-76
2022/02/09 11:58:39;;;;;;;1.02;1.02;;;10.10;99.90;;;;;;5071915;28;20595;-77
2022/02/09 12:01:38;;;;;;;1.23;1.13;;;10.30;99.90;;;;;;5072248;28;20744;-76
2022/02/09 12:10:21;;;;;;;3.40;2.40;;;10.60;99.90;;;;;;5049124;28;20443;-76
2022/02/09 12:12:56;;;;;;;2.17;1.65;;;10.30;99.90;;;;;;5066645;28;20579;-77
2022/02/09 12:16:08;;;;;;;3.70;1.20;;;10.20;99.90;;;;;;5071497;28;20174;-76
2022/02/09 12:18:38;;;;;;;0.70;0.63;;;10.20;99.90;;;;;;5071759;28;20201;-78
2022/02/09 12:21:15;;;;;;;0.50;0.40;;;10.10;99.90;;;;;;5071483;28;20735;-76
2022/02/09 12:23:46;;;;;;;0.70;0.70;;;10.00;99.90;;;;;;5071800;28;20587;-77
2022/02/09 12:26:17;;;;;;;0.93;0.60;;;10.00;99.90;;;;;;5071521;28;20456;-76
2022/02/09 12:28:53;;;;;;;2.67;1.77;;;10.00;99.90;;;;;;5072107;28;20532;-74
2022/02/09 12:31:23;;;;;;;0.50;0.40;;;10.00;99.90;;;;;;5072079;28;20185;-76
2022/02/09 12:33:52;;;;;;;1.23;1.13;;;10.00;99.90;;;;;;5071884;28;20193;-77
2022/02/09 12:36:20;;;;;;;3.53;1.23;;;10.00;99.90;;;;;;5071462;28;20217;-77
2022/02/09 12:38:49;;;;;;;1.80;1.17;;;10.10;99.90;;;;;;5071468;28;20263;-73
2022/02/09 12:41:19;;;;;;;0.50;0.50;;;10.00;99.90;;;;;;5071870;28;20448;-77
2022/02/09 12:43:52;;;;;;;2.15;0.65;;;9.90;99.90;;;;;;5071747;28;20464;-77
2022/02/09 12:46:21;;;;;;;0.83;0.70;;;10.00;99.90;;;;;;5071343;28;20283;-77
2022/02/09 12:48:49;;;;;;;6.07;2.28;;;10.00;99.90;;;;;;5071762;28;20478;-73
2022/02/09 12:51:27;;;;;;;0.50;0.40;;;10.10;99.90;;;;;;5071156;28;20198;-78
2022/02/09 12:53:54;;;;;;;0.68;0.68;;;9.90;99.90;;;;;;5071877;28;20198;-77
2022/02/09 12:56:28;;;;;;;0.50;0.40;;;10.00;99.90;;;;;;5071788;28;20213;-75
2022/02/09 12:58:57;;;;;;;0.55;0.45;;;10.00;99.90;;;;;;5070794;28;20193;-75
2022/02/09 13:01:25;;;;;;;0.60;0.60;;;10.00;99.90;;;;;;5071521;28;20263;-77
2022/02/09 13:03:52;;;;;;;0.50;0.40;;;10.10;99.90;;;;;;5071660;28;20263;-76
2022/02/09 13:06:18;;;;;;;0.50;0.40;;;10.10;99.90;;;;;;5071815;28;20218;-78
2022/02/09 13:08:52;;;;;;;1.17;1.08;;;10.20;99.90;;;;;;5072383;28;20193;-77
2022/02/09 13:11:22;;;;;;;1.58;1.48;;;10.20;99.90;;;;;;5074152;28;20564;-76
2022/02/09 13:13:55;;;;;;;0.65;0.65;;;10.20;99.90;;;;;;5073427;28;20182;-77
2022/02/09 13:16:35;;;;;;;1.02;0.77;;;10.20;99.90;;;;;;5071115;28;20738;-75
2022/02/09 13:19:18;;;;;;;0.50;0.40;;;10.30;99.90;;;;;;5071052;28;20196;-76
2022/02/09 13:22:28;;;;;;;0.73;0.73;;;10.50;99.90;;;;;;5071679;28;20193;-76
2022/02/09 13:25:31;;;;;;;2.58;2.47;;;10.70;99.90;;;;;;5070392;28;20214;-77
2022/02/09 13:54:23;;;;;;;1.50;1.40;;;11.20;99.90;;;;;;5074276;28;20220;-76
2022/02/09 14:10:53;;;;;;;0.50;0.40;;;10.50;99.90;;;;;;5064572;28;20234;-78
2022/02/09 14:13:28;;;;;;;0.50;0.40;;;10.50;99.90;;;;;;5054776;28;20228;-78
2022/02/09 14:16:27;;;;;;;0.50;0.40;;;10.60;99.90;;;;;;5054203;28;20213;-75
2022/02/09 14:19:12;;;;;;;0.50;0.40;;;10.70;99.90;;;;;;5060711;28;20193;-76
2022/02/09 14:54:50;;;;;;;0.50;0.40;;;10.70;99.90;;;;;;5052415;28;20190;-77
2022/02/09 14:57:21;;;;;;;0.65;0.50;;;10.70;99.90;;;;;;5053347;28;20221;-77
2022/02/09 15:00:02;;;;;;;1.70;0.93;;;10.70;99.90;;;;;;5053101;28;20182;-78
2022/02/09 15:02:40;;;;;;;0.52;0.52;;;10.70;99.90;;;;;;5053232;28;20237;-78
2022/02/09 15:05:39;;;;;;;0.50;0.40;;;10.80;99.90;;;;;;5053457;28;20214;-78
2022/02/09 15:08:12;;;;;;;0.50;0.40;;;10.80;99.90;;;;;;5062953;28;20218;-78
2022/02/09 15:10:46;;;;;;;0.50;0.40;;;10.80;99.90;;;;;;5073032;28;20198;-79
2022/02/09 15:13:28;;;;;;;0.75;0.75;;;10.80;99.90;;;;;;5072599;28;20732;-79
2022/02/09 15:16:03;;;;;;;1.45;0.50;;;10.80;99.90;;;;;;5073690;28;20220;-78
2022/02/09 15:21:22;;;;;;;1.08;0.88;;;10.80;99.90;;;;;;5072945;28;20189;-77
2022/02/09 15:23:51;;;;;;;1.55;0.50;;;10.80;99.90;;;;;;5073148;28;20197;-78
2022/02/09 15:26:20;;;;;;;0.60;0.52;;;10.80;99.90;;;;;;5073086;28;20271;-77
2022/02/09 15:28:49;;;;;;;0.50;0.40;;;10.70;99.90;;;;;;5072886;28;20255;-77
2022/02/09 15:31:22;;;;;;;0.50;0.50;;;10.80;99.90;;;;;;5072652;28;20194;-78
2022/02/09 15:34:00;;;;;;;0.50;0.40;;;10.70;99.90;;;;;;5073345;28;20216;-78
2022/02/09 15:36:46;;;;;;;0.50;0.30;;;10.70;99.90;;;;;;5072154;28;20221;-78
2022/02/09 15:39:13;;;;;;;0.50;0.40;;;10.70;99.90;;;;;;5072380;28;20193;-78
2022/02/09 15:41:57;;;;;;;1.00;0.82;;;10.70;99.90;;;;;;5072510;28;20233;-77
2022/02/09 15:58:23;;;;;;;0.50;0.40;;;10.80;99.90;;;;;;5072556;28;20729;-79
2022/02/09 16:06:40;;;;;;;0.80;0.70;;;10.80;99.90;;;;;;5071840;28;20278;-78
2022/02/09 16:09:12;;;;;;;0.50;0.40;;;10.80;99.90;;;;;;5071867;28;20640;-78
2022/02/09 16:23:10;;;;;;;0.50;0.38;;;10.60;99.90;;;;;;5071634;28;20195;-78
2022/02/09 16:25:57;;;;;;;0.60;0.40;;;10.50;99.90;;;;;;5071806;28;20571;-78
2022/02/09 16:34:21;;;;;;;0.50;0.40;;;10.50;99.90;;;;;;5071582;28;20193;-78
2022/02/09 16:37:15;;;;;;;0.50;0.32;;;10.50;99.90;;;;;;5071596;28;20718;-78
2022/02/09 16:45:11;;;;;;;0.50;0.40;;;10.40;99.90;;;;;;5071627;28;20259;-76
2022/02/09 16:47:55;;;;;;;0.50;0.40;;;10.40;99.90;;;;;;5072629;28;20221;-79
2022/02/09 16:50:28;;;;;;;0.80;0.77;;;10.30;99.90;;;;;;5072656;28;20209;-79
2022/02/09 16:53:00;;;;;;;0.75;0.75;;;10.30;99.90;;;;;;5073308;28;20208;-79
2022/02/09 16:55:54;;;;;;;0.50;0.40;;;10.30;99.90;;;;;;5072877;28;20612;-79
2022/02/09 17:20:18;;;;;;;1.17;1.02;;;10.20;99.90;;;;;;5076552;28;20193;-79
2022/02/09 17:22:44;;;;;;;0.52;0.52;;;10.20;99.90;;;;;;5079455;28;20225;-79
2022/02/09 17:25:11;;;;;;;0.50;0.40;;;10.20;99.90;;;;;;5075605;28;20213;-77
2022/02/09 17:27:42;;;;;;;0.65;0.65;;;10.20;99.90;;;;;;5075540;28;20210;-79
2022/02/09 17:30:39;;;;;;;0.50;0.40;;;10.10;99.90;;;;;;5075504;28;20717;-79
2022/02/09 17:33:11;;;;;;;0.65;0.65;;;10.10;99.90;;;;;;5075235;28;20192;-79
2022/02/09 17:35:48;;;;;;;1.67;1.05;;;10.10;99.90;;;;;;5075761;28;20204;-79
2022/02/09 17:38:34;;;;;;;0.50;0.40;;;10.10;99.90;;;;;;5075384;28;20225;-79
2022/02/09 17:57:35;;;;;;;0.50;0.40;;;10.00;99.90;;;;;;5075224;28;20678;-78
2022/02/09 18:00:11;;;;;;;1.20;1.10;;;10.00;99.90;;;;;;5075849;28;20276;-78
2022/02/09 18:02:39;;;;;;;0.50;0.50;;;10.00;99.90;;;;;;5075484;28;20174;-79
2022/02/09 18:05:12;;;;;;;0.75;0.75;;;10.00;99.90;;;;;;5075408;28;20304;-79
2022/02/09 18:07:42;;;;;;;0.50;0.40;;;10.00;99.90;;;;;;5075223;28;20764;-79
2022/02/09 18:10:18;;;;;;;3.80;1.30;;;10.00;99.90;;;;;;5075056;28;20244;-79
2022/02/09 18:13:02;;;;;;;0.50;0.40;;;9.90;99.90;;;;;;5074690;28;20212;-79
2022/02/09 18:15:49;;;;;;;0.50;0.40;;;10.00;99.90;;;;;;5075367;28;20174;-79
2022/02/09 18:27:18;;;;;;;0.60;0.60;;;9.90;99.90;;;;;;5050225;28;20216;-79
2022/02/09 18:29:42;;;;;;;0.50;0.40;;;9.90;99.90;;;;;;5075240;28;20544;-78
2022/02/09 18:32:26;;;;;;;0.50;0.40;;;9.90;99.90;;;;;;5074769;28;20292;-78
2022/02/09 18:37:55;;;;;;;0.50;0.40;;;9.90;99.90;;;;;;5074805;28;20209;-79
2022/02/09 18:43:12;;;;;;;0.50;0.40;;;9.90;99.90;;;;;;5075267;28;20643;-78
2022/02/09 18:45:47;;;;;;;0.50;0.50;;;9.90;99.90;;;;;;5074722;28;20217;-79
2022/02/09 18:48:39;;;;;;;0.50;0.40;;;10.00;99.90;;;;;;5074925;28;20272;-79
2022/02/09 18:57:00;;;;;;;0.50;0.40;;;10.00;99.90;;;;;;5074529;28;20217;-78
2022/02/09 18:59:36;;;;;;;0.50;0.40;;;10.00;99.90;;;;;;5074347;28;20182;-79
2022/02/09 19:02:32;;;;;;;0.50;0.35;;;10.00;99.90;;;;;;5074691;28;20181;-78
2022/02/09 19:05:13;;;;;;;0.50;0.40;;;10.00;99.90;;;;;;5074282;28;20202;-78
2022/02/09 19:07:55;;;;;;;0.50;0.40;;;9.90;99.90;;;;;;5074861;28;20221;-79
2022/02/09 19:16:25;;;;;;;0.50;0.40;;;9.90;99.90;;;;;;5074228;28;20181;-78
2022/02/09 19:19:08;;;;;;;0.50;0.40;;;9.90;99.90;;;;;;5073761;28;20232;-79
2022/02/09 19:27:19;;;;;;;0.50;0.40;;;9.90;99.90;;;;;;5052508;28;20339;-78
2022/02/09 19:29:59;;;;;;;0.50;0.40;;;9.90;99.90;;;;;;5073848;28;20178;-79
2022/02/09 19:46:17;;;;;;;0.50;0.40;;;9.80;99.90;;;;;;5073117;28;20217;-79
2022/02/09 19:48:53;;;;;;;0.50;0.40;;;9.70;99.90;;;;;;5074371;28;20185;-77
2022/02/09 19:51:34;;;;;;;0.50;0.40;;;9.60;99.90;;;;;;5073446;28;20193;-79
2022/02/09 19:54:08;;;;;;;0.50;0.40;;;9.50;99.90;;;;;;5073781;28;20636;-76
2022/02/09 19:56:37;;;;;;;0.50;0.40;;;9.40;99.90;;;;;;5073117;28;20224;-79
2022/02/09 19:59:13;;;;;;;0.50;0.40;;;9.30;99.90;;;;;;4371000;28;10000710;-78
2022/02/09 20:01:42;;;;;;;0.50;0.40;;;9.30;99.90;;;;;;5072582;28;20239;-79
2022/02/09 20:04:09;;;;;;;0.50;0.40;;;9.30;99.90;;;;;;5072202;28;20664;-78
2022/02/09 20:06:37;;;;;;;0.50;0.40;;;9.30;99.90;;;;;;5072792;28;20224;-80
2022/02/09 20:09:04;;;;;;;0.50;0.40;;;9.30;99.90;;;;;;5071843;28;20248;-77
2022/02/09 20:11:31;;;;;;;0.50;0.40;;;9.20;99.90;;;;;;5073525;28;20198;-79
2022/02/09 20:13:57;;;;;;;0.50;0.40;;;9.20;99.90;;;;;;5072854;28;20196;-79
2022/02/09 20:16:25;;;;;;;0.50;0.40;;;9.20;99.90;;;;;;5072723;28;20220;-79
2022/02/09 20:18:55;;;;;;;0.50;0.40;;;9.20;99.90;;;;;;5065851;28;20204;-78
2022/02/09 20:21:25;;;;;;;0.50;0.40;;;9.30;99.90;;;;;;5066379;28;20193;-79
2022/02/09 20:23:52;;;;;;;0.50;0.40;;;9.20;99.90;;;;;;5072213;28;20194;-78
2022/02/09 20:26:20;;;;;;;0.60;0.40;;;9.20;99.90;;;;;;5071727;28;20218;-79
2022/02/09 20:28:53;;;;;;;0.50;0.40;;;9.20;99.90;;;;;;5071113;28;20271;-79
2022/02/09 20:31:25;;;;;;;0.50;0.40;;;9.30;99.90;;;;;;5070578;28;20221;-80
2022/02/09 20:33:58;;;;;;;0.50;0.40;;;9.30;99.90;;;;;;5070335;28;20639;-79
2022/02/09 20:36:25;;;;;;;0.50;0.40;;;9.30;99.90;;;;;;5069927;28;20221;-79
2022/02/09 20:38:55;;;;;;;0.50;0.40;;;9.30;99.90;;;;;;5070888;28;20211;-78
2022/02/09 20:41:22;;;;;;;0.50;0.40;;;9.30;99.90;;;;;;5071155;28;20185;-79
2022/02/09 20:44:00;;;;;;;0.50;0.35;;;9.20;99.90;;;;;;5070733;28;20201;-80
2022/02/09 20:46:29;;;;;;;1.77;1.67;;;9.20;99.90;;;;;;5070233;28;20225;-78
2022/02/09 20:48:57;;;;;;;1.70;0.65;;;9.20;99.90;;;;;;5070847;28;20235;-79
2022/02/09 20:51:24;;;;;;;0.50;0.47;;;9.10;99.90;;;;;;5070213;28;20750;-79
2022/02/09 20:53:51;;;;;;;0.93;0.50;;;9.00;99.90;;;;;;5071478;28;20197;-79
2022/02/09 20:56:18;;;;;;;0.95;0.93;;;8.90;99.90;;;;;;5071014;28;20269;-79
2022/02/09 20:58:46;;;;;;;0.95;0.85;;;9.00;99.90;;;;;;5069825;28;20337;-78
2022/02/09 21:01:16;;;;;;;0.50;0.40;;;9.00;99.90;;;;;;5069667;28;20197;-78
2022/02/09 21:03:49;;;;;;;0.68;0.68;;;8.90;99.90;;;;;;5069935;28;20201;-79
2022/02/09 21:06:30;;;;;;;0.50;0.40;;;8.90;99.90;;;;;;5069930;28;20236;-79
2022/02/09 21:09:05;;;;;;;0.85;0.85;;;8.90;99.90;;;;;;5069899;28;20201;-76
2022/02/09 21:11:44;;;;;;;1.77;1.67;;;9.00;99.90;;;;;;5071189;28;20296;-80
2022/02/09 21:14:18;;;;;;;0.50;0.40;;;9.00;99.90;;;;;;5070138;28;20254;-76
2022/02/09 21:17:00;;;;;;;0.50;0.40;;;9.00;99.90;;;;;;5069155;28;20250;-79
2022/02/09 21:19:56;;;;;;;0.50;0.40;;;9.00;99.90;;;;;;5068821;28;20205;-79
2022/02/09 21:23:02;;;;;;;0.50;0.40;;;9.00;99.90;;;;;;5069630;28;20543;-78
2022/02/09 21:53:15;;;;;;;0.50;0.40;;;8.90;99.90;;;;;;5073612;28;20211;-80